createdAt,value
2022-08-12T00:01:03.134Z,99323.34
2022-08-12T00:03:51.084Z,99326.50
2022-08-12T00:06:39.329Z,99322.47
2022-08-12T00:09:26.834Z,99337.22
2022-08-12T00:12:15.196Z,99332.75
2022-08-12T00:15:04.067Z,99338.97
2022-08-12T00:17:50.555Z,99326.94
2022-08-12T00:20:36.726Z,99338.91
2022-08-12T00:23:22.381Z,99343.44
2022-08-12T00:26:22.951Z,99333.16
2022-08-12T00:29:11.923Z,99332.22
2022-08-12T00:32:00.317Z,99237.47
2022-08-12T00:34:47.804Z,99326.19
2022-08-12T00:37:36.300Z,99318.13
2022-08-12T00:40:25.483Z,99327.50
2022-08-12T00:42:53.602Z,99338.34
2022-08-12T00:45:20.935Z,99343.91
2022-08-12T00:47:49.440Z,99321.84
2022-08-12T00:50:20.227Z,99320.75
2022-08-12T00:52:49.196Z,99328.75
2022-08-12T00:55:18.031Z,99337.63
2022-08-12T00:57:48.706Z,99320.47
2022-08-12T01:00:21.605Z,99333.34
2022-08-12T01:02:57.717Z,99338.75
2022-08-12T01:05:45.042Z,99324.91
2022-08-12T01:08:50.912Z,99338.03
2022-08-12T01:11:33.150Z,99337.53
2022-08-12T01:14:02.684Z,99341.13
2022-08-12T01:16:30.407Z,99345.13
2022-08-12T01:19:00.581Z,99352.66
2022-08-12T01:21:27.869Z,99349.13
2022-08-12T01:24:34.115Z,99354.59
2022-08-12T01:27:07.547Z,99344.47
2022-08-12T01:29:41.953Z,99343.38
2022-08-12T01:32:14.602Z,99351.44
2022-08-12T01:35:05.893Z,99355.47
2022-08-12T01:37:37.317Z,99327.13
2022-08-12T01:40:34.587Z,99348.59
2022-08-12T01:42:58.746Z,99341.03
2022-08-12T01:45:29.650Z,99346.59
2022-08-12T01:48:32.359Z,99332.59
2022-08-12T01:52:04.514Z,99347.34
2022-08-12T01:54:30.641Z,99340.88
2022-08-12T01:57:13.662Z,99332.78
2022-08-12T02:00:12.393Z,99326.41
2022-08-12T02:02:57.874Z,99326.41
2022-08-12T02:06:01.173Z,99337.28
2022-08-12T02:09:10.819Z,99335.66
2022-08-12T02:12:00.604Z,99331.63
2022-08-12T02:14:51.243Z,99333.25
2022-08-12T02:17:55.397Z,99338.34
2022-08-12T02:20:51.969Z,99345.88
2022-08-12T02:23:27.177Z,99340.59
2022-08-12T02:26:20.917Z,99331.78
2022-08-12T02:28:48.981Z,99336.63
2022-08-12T02:31:16.454Z,99338.16
2022-08-12T02:33:47.703Z,99331.72
2022-08-12T02:36:16.555Z,99331.53
2022-08-12T02:38:45.004Z,99330.00
2022-08-12T02:41:17.045Z,99318.63
2022-08-12T02:44:08.586Z,99337.38
2022-08-12T02:46:36.953Z,99322.47
2022-08-12T02:49:16.191Z,99337.72
2022-08-12T02:51:44.448Z,99342.84
2022-08-12T02:54:12.081Z,99332.09
2022-08-12T02:56:41.920Z,99327.88
2022-08-12T02:59:20.811Z,99326.16
2022-08-12T03:01:54.514Z,99326.88
2022-08-12T03:04:30.013Z,99339.34
2022-08-12T03:07:09.935Z,99346.88
2022-08-12T03:10:05.160Z,99344.28
2022-08-12T03:12:40.094Z,99343.84
2022-08-12T03:15:19.048Z,99320.06
2022-08-12T03:18:28.682Z,99351.28
2022-08-12T03:20:58.775Z,99347.78
2022-08-12T03:23:29.723Z,99355.78
2022-08-12T03:26:02.916Z,99347.59
2022-08-12T03:28:54.195Z,99353.16
2022-08-12T03:31:28.429Z,99341.66
2022-08-12T03:34:06.555Z,99354.59
2022-08-12T03:36:36.263Z,99346.25
2022-08-12T03:39:15.532Z,99352.59
2022-08-12T03:42:07.679Z,99348.22
2022-08-12T03:45:00.649Z,99345.88
2022-08-12T03:48:06.043Z,99350.94
2022-08-12T03:50:51.943Z,99342.69
2022-08-12T03:53:46.333Z,99339.63
2022-08-12T03:56:32.755Z,99323.13
2022-08-12T03:59:20.403Z,99348.75
2022-08-12T04:01:57.940Z,99354.25
2022-08-12T04:04:28.026Z,99354.50
2022-08-12T04:06:58.199Z,99353.53
2022-08-12T04:09:26.444Z,99354.50
2022-08-12T04:12:12.178Z,99358.09
2022-08-12T04:14:40.600Z,99356.03
2022-08-12T04:17:08.584Z,99331.81
2022-08-12T04:19:37.503Z,99341.69
2022-08-12T04:22:04.984Z,99349.31
2022-08-12T04:24:35.390Z,99358.72
2022-08-12T04:27:08.879Z,99343.19
2022-08-12T04:30:21.052Z,99344.97
2022-08-12T04:32:26.065Z,99346.16
2022-08-12T04:34:53.795Z,99350.56
2022-08-12T04:37:21.421Z,99357.66
2022-08-12T04:39:49.358Z,99357.06
2022-08-12T04:42:16.589Z,99361.94
2022-08-12T04:44:44.643Z,99358.03
2022-08-12T04:47:13.299Z,99372.63
2022-08-12T04:49:41.413Z,99355.59
2022-08-12T04:52:10.491Z,99360.19
2022-08-12T04:54:38.695Z,99366.78
2022-08-12T04:57:09.682Z,99359.72
2022-08-12T04:59:48.358Z,99358.38
2022-08-12T05:02:22.810Z,99356.06
2022-08-12T05:04:52.315Z,99363.47
2022-08-12T05:07:21.071Z,99362.03
2022-08-12T05:10:00.884Z,99366.72
2022-08-12T05:12:38.178Z,99354.47
2022-08-12T05:15:16.765Z,99352.59
2022-08-12T05:17:56.206Z,99361.25
2022-08-12T05:20:27.331Z,99348.47
2022-08-12T05:23:13.804Z,99367.94
2022-08-12T05:25:43.505Z,99365.81
2022-08-12T05:28:13.183Z,99364.88
2022-08-12T05:30:42.828Z,99371.78
2022-08-12T05:33:12.119Z,99351.91
2022-08-12T05:35:44.651Z,99366.16
2022-08-12T05:38:37.210Z,99349.91
2022-08-12T05:41:19.703Z,99368.94
2022-08-12T05:43:52.441Z,99370.25
2022-08-12T05:46:21.547Z,99371.09
2022-08-12T05:48:50.149Z,99363.94
2022-08-12T05:51:19.019Z,99363.66
2022-08-12T05:53:47.055Z,99364.97
2022-08-12T05:56:21.938Z,99361.84
2022-08-12T05:58:51.589Z,99362.72
2022-08-12T06:02:10.727Z,99353.16
2022-08-12T06:04:12.442Z,99345.13
2022-08-12T06:06:42.601Z,99355.19
2022-08-12T06:09:11.806Z,99354.44
2022-08-12T06:12:05.123Z,99363.72
2022-08-12T06:14:29.122Z,99371.78
2022-08-12T06:16:57.757Z,99355.31
2022-08-12T06:20:27.771Z,99361.34
2022-08-12T06:22:13.106Z,99360.97
2022-08-12T06:24:40.211Z,99353.34
2022-08-12T06:27:07.700Z,99362.59
2022-08-12T06:30:07.273Z,99359.81
2022-08-12T06:32:27.524Z,99356.63
2022-08-12T06:35:26.020Z,99367.81
2022-08-12T06:37:57.205Z,99352.16
2022-08-12T06:40:44.054Z,99359.78
2022-08-12T06:43:14.359Z,99360.56
2022-08-12T06:45:47.472Z,99350.91
2022-08-12T06:48:15.016Z,99346.84
2022-08-12T06:50:42.777Z,99354.41
2022-08-12T06:53:11.479Z,99345.13
2022-08-12T06:55:56.734Z,99352.34
2022-08-12T06:58:30.361Z,99352.25
2022-08-12T07:00:59.316Z,99341.00
2022-08-12T07:03:31.070Z,99340.22
2022-08-12T07:06:04.881Z,99342.97
2022-08-12T07:08:34.724Z,99337.22
2022-08-12T07:11:05.289Z,99339.50
2022-08-12T07:14:12.557Z,99336.28
2022-08-12T07:16:46.460Z,99327.78
2022-08-12T07:19:14.194Z,99330.13
2022-08-12T07:22:00.306Z,99329.97
2022-08-12T07:24:30.008Z,99342.75
2022-08-12T07:26:57.254Z,99339.47
2022-08-12T07:30:00.036Z,99325.72
2022-08-12T07:32:13.486Z,99328.09
2022-08-12T07:34:43.585Z,99326.34
2022-08-12T07:37:10.872Z,99334.31
2022-08-12T07:39:50.974Z,99317.50
2022-08-12T07:42:25.440Z,99333.59
2022-08-12T07:44:53.941Z,99311.81
2022-08-12T07:47:21.350Z,99328.47
2022-08-12T07:50:05.585Z,99329.22
2022-08-12T07:52:38.717Z,99320.25
2022-08-12T07:55:07.746Z,99327.03
2022-08-12T07:57:48.350Z,99320.44
2022-08-12T08:00:16.211Z,99323.22
2022-08-12T08:02:43.382Z,99319.13
2022-08-12T08:05:10.465Z,99319.13
2022-08-12T08:07:38.817Z,99306.13
2022-08-12T08:10:10.877Z,99307.25
2022-08-12T08:12:59.006Z,99312.41
2022-08-12T08:15:58.937Z,99315.53
2022-08-12T08:18:26.853Z,99298.66
2022-08-12T08:20:56.421Z,99296.53
2022-08-12T08:23:46.409Z,99283.69
2022-08-12T08:26:15.752Z,99293.66
2022-08-12T08:28:43.685Z,99289.06
2022-08-12T08:31:12.881Z,99289.13
2022-08-12T08:34:04.862Z,99284.53
2022-08-12T08:36:29.518Z,99308.03
2022-08-12T08:38:58.598Z,99291.22
2022-08-12T08:42:16.728Z,99285.25
2022-08-12T08:44:39.615Z,99278.88
2022-08-12T08:47:08.591Z,99271.50
2022-08-12T08:49:37.432Z,99268.19
2022-08-12T08:52:06.788Z,99269.19
2022-08-12T08:54:38.018Z,99274.84
2022-08-12T08:57:08.361Z,99266.56
2022-08-12T08:59:36.159Z,99257.13
2022-08-12T09:02:03.758Z,99258.41
2022-08-12T09:05:11.116Z,99243.09
2022-08-12T09:10:09.328Z,99248.16
2022-08-12T09:13:22.858Z,99240.63
2022-08-12T09:18:41.168Z,99247.03
2022-08-12T09:21:09.703Z,99244.06
2022-08-12T09:23:58.735Z,99229.69
2022-08-12T09:26:28.787Z,99242.25
2022-08-12T09:29:00.601Z,99236.50
2022-08-12T09:32:07.611Z,99224.31
2022-08-12T09:34:28.171Z,99225.63
2022-08-12T09:37:18.699Z,99222.72
2022-08-12T09:40:01.921Z,99240.22
2022-08-12T09:43:11.770Z,99222.59
2022-08-12T09:46:11.237Z,99229.19
2022-08-12T09:48:34.977Z,99233.09
2022-08-12T09:51:10.699Z,99231.66
2022-08-12T09:53:39.734Z,99218.84
2022-08-12T09:56:58.551Z,99223.00
2022-08-12T09:59:01.645Z,99220.03
2022-08-12T10:01:35.140Z,99221.66
2022-08-12T10:04:19.351Z,99208.56
2022-08-12T10:06:55.231Z,99224.06
2022-08-12T10:09:57.363Z,99216.38
2022-08-12T10:12:32.960Z,99191.63
2022-08-12T10:15:02.289Z,99210.88
2022-08-12T10:17:30.293Z,99201.59
2022-08-12T10:19:59.726Z,99208.38
2022-08-12T10:22:38.952Z,99198.28
2022-08-12T10:26:38.185Z,99197.59
2022-08-12T10:28:38.450Z,99191.25
2022-08-12T10:31:15.911Z,99204.38
2022-08-12T10:34:06.228Z,99200.03
2022-08-12T10:36:40.749Z,99196.75
2022-08-12T10:40:01.941Z,99185.41
2022-08-12T10:42:29.461Z,99196.38
2022-08-12T10:45:06.067Z,99185.59
2022-08-12T10:48:16.026Z,99189.81
2022-08-12T10:50:28.581Z,99188.53
2022-08-12T10:53:00.971Z,99184.56
2022-08-12T10:55:28.454Z,99191.19
2022-08-12T10:58:14.397Z,99179.03
2022-08-12T11:00:55.002Z,99167.31
2022-08-12T11:04:28.235Z,99179.81
2022-08-12T11:07:08.082Z,99183.09
2022-08-12T11:08:58.830Z,99173.03
2022-08-12T11:12:34.672Z,99174.56
2022-08-12T11:14:49.472Z,99157.44
2022-08-12T11:17:34.317Z,99183.44
2022-08-12T11:19:55.633Z,99168.53
2022-08-12T11:22:24.117Z,99181.84
2022-08-12T11:24:53.649Z,99168.69
2022-08-12T11:27:22.572Z,99179.03
2022-08-12T11:30:06.445Z,99166.59
2022-08-12T11:32:38.863Z,99166.22
2022-08-12T11:35:06.936Z,99173.78
2022-08-12T11:37:58.177Z,99155.09
2022-08-12T11:40:23.268Z,99146.94
2022-08-12T11:42:51.857Z,99153.41
2022-08-12T11:45:19.727Z,99144.66
2022-08-12T11:47:47.413Z,99146.59
2022-08-12T11:50:21.430Z,99143.84
2022-08-12T11:52:59.644Z,99155.78
2022-08-12T11:55:29.540Z,99137.03
2022-08-12T11:58:33.304Z,99138.06
2022-08-12T12:03:44.104Z,99147.16
2022-08-12T12:06:16.774Z,99128.63
2022-08-12T12:08:50.442Z,99128.31
2022-08-12T12:11:19.285Z,99130.00
2022-08-12T12:14:08.176Z,99137.38
2022-08-12T12:16:39.584Z,99116.16
2022-08-12T12:19:10.231Z,99125.13
2022-08-12T12:21:48.016Z,99116.81
2022-08-12T12:24:22.065Z,99119.56
2022-08-12T12:27:00.457Z,99115.91
2022-08-12T12:30:17.929Z,99100.97
2022-08-12T12:32:28.842Z,99104.97
2022-08-12T12:35:14.500Z,99104.84
2022-08-12T12:38:04.590Z,99090.91
2022-08-12T12:40:43.767Z,99105.25
2022-08-12T12:43:12.890Z,99103.09
2022-08-12T12:45:44.487Z,99107.06
2022-08-12T12:48:21.462Z,99102.06
2022-08-12T12:51:13.756Z,99071.53
2022-08-12T12:54:08.797Z,99091.47
2022-08-12T12:56:48.045Z,99087.72
2022-08-12T12:59:55.202Z,99078.16
2022-08-12T13:02:08.671Z,99080.63
2022-08-12T13:04:37.802Z,99088.28
2022-08-12T13:07:06.828Z,99091.78
2022-08-12T13:09:36.003Z,99088.69
2022-08-12T13:12:08.176Z,99084.84
2022-08-12T13:14:35.408Z,99084.84
2022-08-12T13:17:11.429Z,99082.47
2022-08-12T13:19:48.224Z,99067.97
2022-08-12T13:22:23.549Z,99073.00
2022-08-12T13:24:56.441Z,99062.16
2022-08-12T13:27:34.500Z,99070.38
2022-08-12T13:30:07.042Z,99060.56
2022-08-12T13:32:56.867Z,99061.66
2022-08-12T13:36:02.904Z,99063.03
2022-08-12T13:38:34.618Z,99067.72
2022-08-12T13:41:04.085Z,99071.91
2022-08-12T13:43:41.006Z,99071.25
2022-08-12T13:46:13.475Z,99066.41
2022-08-12T13:48:44.964Z,99075.75
2022-08-12T13:51:14.254Z,99071.69
2022-08-12T13:53:58.157Z,99070.97
2022-08-12T13:56:30.569Z,99067.06
2022-08-12T13:59:07.718Z,99059.59
2022-08-12T14:01:40.264Z,99046.97
2022-08-12T14:04:11.351Z,99060.69
2022-08-12T14:06:40.639Z,99043.94
2022-08-12T14:09:15.574Z,99049.97
2022-08-12T14:11:59.014Z,99048.94
2022-08-12T14:14:31.317Z,98999.53
2022-08-12T14:17:10.215Z,99052.22
2022-08-12T14:20:00.495Z,99044.38
2022-08-12T14:22:28.999Z,99044.00
2022-08-12T14:24:58.389Z,99044.91
2022-08-12T14:28:02.634Z,99034.47
2022-08-12T14:30:24.082Z,99040.28
2022-08-12T14:33:46.492Z,98984.28
2022-08-12T14:36:26.927Z,99024.69
2022-08-12T14:38:56.096Z,99043.00
2022-08-12T14:41:36.687Z,99039.00
2022-08-12T14:44:59.839Z,99046.28
2022-08-12T14:47:01.338Z,99037.56
2022-08-12T14:50:33.872Z,99035.16
2022-08-12T14:53:42.349Z,99031.75
2022-08-12T14:58:01.841Z,99012.41
2022-08-12T15:00:52.384Z,99035.66
2022-08-12T15:03:52.790Z,99028.28
2022-08-12T15:06:44.618Z,99038.59
2022-08-12T15:09:05.105Z,99029.72
2022-08-12T15:11:48.769Z,99031.75
2022-08-12T15:14:21.370Z,99020.16
2022-08-12T15:16:49.962Z,99011.00
2022-08-12T15:20:00.083Z,99010.91
2022-08-12T15:22:38.483Z,99007.28
2022-08-12T15:24:52.817Z,99007.72
2022-08-12T15:27:22.455Z,98997.72
2022-08-12T15:29:59.479Z,99002.38
2022-08-12T15:32:32.221Z,98996.47
2022-08-12T15:35:02.985Z,99005.34
2022-08-12T15:38:09.028Z,98986.63
2022-08-12T15:40:30.123Z,98999.22
2022-08-12T15:42:59.942Z,98993.22
2022-08-12T15:45:32.219Z,98990.47
2022-08-12T15:48:04.596Z,98989.56
2022-08-12T15:50:45.771Z,98989.56
2022-08-12T15:53:17.202Z,98995.00
2022-08-12T15:55:49.385Z,98987.53
2022-08-12T15:58:18.189Z,98965.41
2022-08-12T16:00:48.739Z,98993.69
2022-08-12T16:03:45.313Z,98973.00
2022-08-12T16:06:18.998Z,98980.19
2022-08-12T16:08:57.975Z,98969.00
2022-08-12T16:11:26.777Z,98977.72
2022-08-12T16:13:54.176Z,98977.72
2022-08-12T16:16:24.394Z,98975.50
2022-08-12T16:18:59.566Z,98970.63
2022-08-12T16:21:52.719Z,98973.53
2022-08-12T16:24:20.647Z,98960.97
2022-08-12T16:26:51.465Z,98972.38
2022-08-12T16:29:52.196Z,98959.94
2022-08-12T16:32:24.090Z,98962.84
2022-08-12T16:34:55.733Z,98968.91
2022-08-12T16:37:32.411Z,98964.16
2022-08-12T16:40:12.075Z,98973.91
2022-08-12T16:42:42.157Z,98969.03
2022-08-12T16:45:23.488Z,98963.16
2022-08-12T16:48:01.767Z,98961.66
2022-08-12T16:50:30.971Z,98967.63
2022-08-12T16:52:59.868Z,98967.03
2022-08-12T16:55:41.974Z,98971.53
2022-08-12T16:58:28.244Z,98975.09
2022-08-12T17:01:01.786Z,98973.94
2022-08-12T17:03:32.435Z,98970.94
2022-08-12T17:06:06.528Z,98955.13
2022-08-12T17:08:33.973Z,98958.78
2022-08-12T17:11:01.013Z,98971.50
2022-08-12T17:13:29.415Z,98967.81
2022-08-12T17:16:06.130Z,98971.25
2022-08-12T17:18:56.857Z,98975.50
2022-08-12T17:21:41.591Z,98975.66
2022-08-12T17:24:15.163Z,98973.19
2022-08-12T17:26:49.458Z,98985.91
2022-08-12T17:29:32.119Z,98953.19
2022-08-12T17:32:11.268Z,98985.06
2022-08-12T17:34:56.982Z,98980.41
2022-08-12T17:37:24.275Z,98989.06
2022-08-12T17:40:13.645Z,98983.22
2022-08-12T17:42:39.689Z,98987.06
2022-08-12T17:45:17.473Z,98989.09
2022-08-12T17:48:01.132Z,98985.69
2022-08-12T17:50:34.804Z,98994.97
2022-08-12T17:53:02.917Z,99000.38
2022-08-12T17:55:43.483Z,98946.84
2022-08-12T17:58:35.682Z,98993.88
2022-08-12T18:01:11.348Z,99004.09
2022-08-12T18:03:58.094Z,99007.44
2022-08-12T18:06:28.476Z,99012.06
2022-08-12T18:08:59.434Z,99017.75
2022-08-12T18:12:03.892Z,99016.34
2022-08-12T18:14:37.321Z,99011.63
2022-08-12T18:17:08.862Z,99018.97
2022-08-12T18:20:05.283Z,99009.50
2022-08-12T18:22:31.640Z,99020.72
2022-08-12T18:25:03.902Z,99030.88
2022-08-12T18:27:44.251Z,99015.34
2022-08-12T18:30:16.332Z,99027.44
2022-08-12T18:32:54.175Z,99023.59
2022-08-12T18:35:46.476Z,99040.50
2022-08-12T18:38:20.068Z,99033.38
2022-08-12T18:41:09.711Z,99031.78
2022-08-12T18:43:58.872Z,99048.00
2022-08-12T18:46:32.395Z,99054.53
2022-08-12T18:49:18.762Z,99042.06
2022-08-12T18:52:02.387Z,99045.00
2022-08-12T18:54:35.349Z,99046.28
2022-08-12T18:57:19.975Z,99046.81
2022-08-12T19:00:06.807Z,99045.31
2022-08-12T19:02:40.704Z,99043.31
2022-08-12T19:05:14.388Z,99051.41
2022-08-12T19:07:49.686Z,99048.66
2022-08-12T19:10:26.148Z,99043.13
2022-08-12T19:13:21.015Z,99043.97
2022-08-12T19:15:50.935Z,99047.34
2022-08-12T19:18:22.035Z,99044.63
2022-08-12T19:20:50.373Z,99052.72
2022-08-12T19:23:21.440Z,99047.97
2022-08-12T19:26:01.024Z,99047.19
2022-08-12T19:28:34.808Z,99053.25
2022-08-12T19:31:56.719Z,99049.34
2022-08-12T19:35:32.859Z,99056.69
2022-08-12T19:37:26.679Z,99069.72
2022-08-12T19:40:09.227Z,99059.28
2022-08-12T19:42:53.480Z,99058.88
2022-08-12T19:45:22.207Z,99064.50
2022-08-12T19:47:49.509Z,99056.56
2022-08-12T19:50:20.243Z,99057.38
2022-08-12T19:52:53.051Z,99057.47
2022-08-12T19:55:22.728Z,99063.94
2022-08-12T19:58:03.036Z,99046.00
2022-08-12T20:00:34.699Z,99058.88
2022-08-12T20:03:04.723Z,99051.69
2022-08-12T20:06:06.528Z,99061.31
2022-08-12T20:08:34.236Z,99044.13
2022-08-12T20:12:11.210Z,98974.16
2022-08-12T20:14:00.590Z,99049.72
2022-08-12T20:16:57.267Z,99046.13
2022-08-12T20:19:53.030Z,99038.13
2022-08-12T20:22:29.459Z,99032.56
2022-08-12T20:25:10.518Z,99043.78
2022-08-12T20:28:02.914Z,99045.00
2022-08-12T20:30:37.323Z,99038.59
2022-08-12T20:33:50.339Z,99041.03
2022-08-12T20:36:41.207Z,99046.28
2022-08-12T20:39:05.402Z,99042.31
2022-08-12T20:41:58.663Z,99038.28
2022-08-12T20:44:27.393Z,99043.91
2022-08-12T20:46:58.238Z,99024.28
2022-08-12T20:49:25.662Z,99035.50
2022-08-12T20:51:59.387Z,99035.91
2022-08-12T20:54:33.993Z,99029.91
2022-08-12T20:57:07.371Z,99034.31
2022-08-12T20:59:49.654Z,99038.72
2022-08-12T21:02:24.330Z,99041.53
2022-08-12T21:05:20.335Z,99051.13
2022-08-12T21:07:52.297Z,99037.53
2022-08-12T21:10:20.739Z,99046.34
2022-08-12T21:12:50.847Z,99050.75
2022-08-12T21:15:30.157Z,99064.75
2022-08-12T21:18:11.299Z,99039.06
2022-08-12T21:20:51.560Z,99050.28
2022-08-12T21:23:21.500Z,99051.06
2022-08-12T21:25:51.145Z,99039.03
2022-08-12T21:28:20.772Z,99041.06
2022-08-12T21:31:11.360Z,99046.25
2022-08-12T21:33:58.548Z,99045.47
2022-08-12T21:36:34.431Z,99045.84
2022-08-12T21:39:18.582Z,99045.41
2022-08-12T21:41:53.979Z,99043.00
2022-08-12T21:45:46.567Z,99044.59
2022-08-12T21:47:21.609Z,99043.00
2022-08-12T21:50:04.005Z,99050.19
2022-08-12T21:52:43.378Z,99043.34
2022-08-12T21:55:17.705Z,99036.53
2022-08-12T21:57:54.394Z,99048.50
2022-08-12T22:00:36.794Z,99048.47
2022-08-12T22:04:03.229Z,99041.63
2022-08-12T22:06:26.191Z,99048.88
2022-08-12T22:09:02.717Z,99043.22
2022-08-12T22:11:41.813Z,99043.59
2022-08-12T22:14:21.264Z,99004.66
2022-08-12T22:16:51.208Z,99032.31
2022-08-12T22:19:19.834Z,99040.31
2022-08-12T22:21:54.592Z,99042.72
2022-08-12T22:24:27.131Z,99035.53
2022-08-12T22:27:28.241Z,99035.50
2022-08-12T22:30:16.954Z,99032.25
2022-08-12T22:32:51.645Z,99038.63
2022-08-12T22:35:55.661Z,99029.84
2022-08-12T22:38:25.018Z,99024.25
2022-08-12T22:41:01.871Z,99033.41
2022-08-12T22:44:00.034Z,99036.59
2022-08-12T22:46:34.819Z,99034.63
2022-08-12T22:49:02.147Z,99023.44
2022-08-12T22:51:59.848Z,99018.59
2022-08-12T22:54:35.234Z,99036.94
2022-08-12T22:57:11.894Z,99012.47
2022-08-12T22:59:55.370Z,99027.25
2022-08-12T23:02:29.041Z,99030.06
2022-08-12T23:04:58.251Z,99026.00
2022-08-12T23:07:25.523Z,99024.81
2022-08-12T23:09:54.795Z,99026.00
2022-08-12T23:12:46.958Z,99017.88
2022-08-12T23:15:16.303Z,99026.72
2022-08-12T23:17:43.625Z,99023.88
2022-08-12T23:20:15.069Z,99019.09
2022-08-12T23:22:43.962Z,99012.25
2022-08-12T23:25:32.531Z,99019.06
2022-08-12T23:28:37.179Z,99014.19
2022-08-12T23:31:06.556Z,99005.41
2022-08-12T23:34:00.107Z,99010.56
2022-08-12T23:36:39.411Z,99009.34
2022-08-12T23:40:06.851Z,99006.97
2022-08-12T23:42:17.547Z,98998.53
2022-08-12T23:44:48.693Z,99001.72
2022-08-12T23:47:21.463Z,99004.50
2022-08-12T23:49:58.640Z,98995.72
2022-08-12T23:52:34.763Z,98997.31
2022-08-12T23:55:23.262Z,98996.91
2022-08-12T23:58:17.301Z,98978.44
